createdAt,value
2022-11-23T00:00:25.092Z,7.90
2022-11-23T00:04:27.363Z,7.90
2022-11-23T00:08:30.215Z,7.90
2022-11-23T00:12:32.639Z,7.90
2022-11-23T00:16:37.062Z,7.90
2022-11-23T00:20:39.613Z,8.00
2022-11-23T00:24:42.996Z,8.10
2022-11-23T00:28:46.368Z,8.10
2022-11-23T00:32:50.051Z,8.10
2022-11-23T00:36:52.251Z,8.10
2022-11-23T00:41:05.672Z,8.10
2022-11-23T00:45:08.332Z,8.00
2022-11-23T00:49:11.781Z,8.00
2022-11-23T00:53:13.983Z,7.90
2022-11-23T00:57:16.464Z,7.90
2022-11-23T01:01:19.983Z,7.90
2022-11-23T01:05:24.087Z,7.90
2022-11-23T01:09:27.050Z,7.90
2022-11-23T01:13:30.209Z,8.00
2022-11-23T01:17:32.207Z,8.00
2022-11-23T01:21:34.821Z,8.00
2022-11-23T01:25:38.219Z,8.00
2022-11-23T01:29:39.998Z,8.00
2022-11-23T01:33:42.307Z,8.00
2022-11-23T01:37:43.995Z,8.00
2022-11-23T01:41:46.850Z,8.00
2022-11-23T01:45:58.602Z,8.00
2022-11-23T01:50:00.420Z,7.90
2022-11-23T01:54:04.411Z,7.90
2022-11-23T01:58:13.080Z,7.90
2022-11-23T02:02:15.643Z,7.90
2022-11-23T02:06:19.123Z,7.90
2022-11-23T02:10:23.059Z,7.90
2022-11-23T02:14:25.801Z,7.90
2022-11-23T02:18:29.287Z,7.90
2022-11-23T02:22:53.224Z,7.90
2022-11-23T02:26:55.655Z,7.90
2022-11-23T02:30:57.454Z,7.90
2022-11-23T02:34:59.172Z,7.90
2022-11-23T02:39:01.807Z,7.90
2022-11-23T02:43:03.666Z,7.90
2022-11-23T02:52:05.213Z,7.90
2022-11-23T02:56:06.935Z,7.90
2022-11-23T03:00:09.085Z,7.80
2022-11-23T03:04:10.724Z,7.90
2022-11-23T03:08:12.340Z,7.90
2022-11-23T03:12:13.985Z,7.90
2022-11-23T03:16:16.606Z,7.90
2022-11-23T03:20:18.447Z,7.90
2022-11-23T03:24:23.121Z,7.90
2022-11-23T03:28:25.181Z,7.90
2022-11-23T03:32:26.788Z,7.90
2022-11-23T03:36:36.930Z,7.90
2022-11-23T03:40:46.431Z,7.80
2022-11-23T03:44:48.141Z,7.80
2022-11-23T03:48:49.753Z,7.90
2022-11-23T03:52:51.634Z,8.00
2022-11-23T03:56:53.243Z,8.00
2022-11-23T04:00:55.037Z,7.90
2022-11-23T04:04:56.987Z,8.00
2022-11-23T04:09:21.273Z,8.00
2022-11-23T04:13:26.041Z,8.00
2022-11-23T04:17:28.267Z,8.10
2022-11-23T04:21:42.929Z,8.00
2022-11-23T04:26:04.850Z,8.00
2022-11-23T04:30:16.331Z,8.00
2022-11-23T04:34:35.871Z,7.90
2022-11-23T04:38:38.244Z,7.90
2022-11-23T04:42:39.991Z,7.90
2022-11-23T04:46:41.908Z,7.80
2022-11-23T04:51:08.784Z,7.80
2022-11-23T04:55:11.432Z,7.70
2022-11-23T04:59:13.429Z,7.70
2022-11-23T05:03:45.088Z,7.70
2022-11-23T05:07:55.544Z,7.60
2022-11-23T05:12:18.332Z,7.60
2022-11-23T05:21:08.485Z,7.60
2022-11-23T05:25:22.506Z,7.60
2022-11-23T05:29:46.674Z,7.70
2022-11-23T05:33:51.625Z,7.80
2022-11-23T05:37:53.698Z,7.80
2022-11-23T05:41:55.304Z,7.80
2022-11-23T05:45:58.717Z,7.80
2022-11-23T05:55:38.432Z,7.90
2022-11-23T05:59:40.473Z,7.90
2022-11-23T06:03:43.657Z,7.90
2022-11-23T06:07:45.444Z,8.00
2022-11-23T06:11:48.386Z,7.90
2022-11-23T06:15:50.228Z,7.90
2022-11-23T06:19:52.046Z,7.90
2022-11-23T06:23:53.816Z,7.90
2022-11-23T06:27:56.054Z,7.90
2022-11-23T06:31:57.804Z,7.90
2022-11-23T06:36:04.207Z,7.80
2022-11-23T06:40:07.168Z,7.70
2022-11-23T06:44:08.908Z,7.50
2022-11-23T06:48:17.101Z,7.40
2022-11-23T06:52:26.718Z,7.40
2022-11-23T06:56:36.950Z,7.40
2022-11-23T07:01:20.569Z,7.40
2022-11-23T07:05:38.453Z,7.30
2022-11-23T07:09:41.064Z,7.30
2022-11-23T07:13:43.111Z,7.30
2022-11-23T07:17:47.360Z,7.30
2022-11-23T07:22:14.487Z,7.20
2022-11-23T07:26:16.099Z,7.10
2022-11-23T07:30:17.960Z,7.10
2022-11-23T07:34:20.156Z,7.00
2022-11-23T07:38:21.820Z,7.00
2022-11-23T07:42:44.646Z,7.00
2022-11-23T07:46:47.492Z,6.90
2022-11-23T07:50:51.829Z,6.90
2022-11-23T07:54:53.513Z,7.10
2022-11-23T07:58:55.377Z,7.20
2022-11-23T08:03:26.242Z,7.30
2022-11-23T08:07:20.055Z,7.40
2022-11-23T08:11:22.411Z,7.40
2022-11-23T08:15:24.125Z,7.40
2022-11-23T08:19:25.786Z,7.30
2022-11-23T08:23:27.700Z,7.40
2022-11-23T08:27:29.469Z,7.30
2022-11-23T08:35:53.416Z,7.50
2022-11-23T08:39:56.924Z,7.50
2022-11-23T08:43:58.533Z,7.60
2022-11-23T08:48:00.971Z,7.70
2022-11-23T08:52:09.504Z,7.80
2022-11-23T08:56:11.244Z,7.90
2022-11-23T09:00:32.980Z,7.90
2022-11-23T09:04:34.706Z,8.00
2022-11-23T09:08:36.837Z,8.10
2022-11-23T09:12:38.502Z,8.20
2022-11-23T09:16:40.180Z,8.20
2022-11-23T09:20:41.854Z,8.20
2022-11-23T09:24:43.536Z,8.30
2022-11-23T09:28:46.384Z,8.40
2022-11-23T09:32:48.171Z,8.40
2022-11-23T09:36:50.762Z,8.30
2022-11-23T09:41:04.115Z,8.20
2022-11-23T09:45:44.841Z,8.10
2022-11-23T09:50:16.872Z,8.20
2022-11-23T09:54:34.322Z,8.30
2022-11-23T09:58:41.244Z,8.40
2022-11-23T10:02:43.164Z,8.40
2022-11-23T10:06:45.434Z,8.40
2022-11-23T10:10:56.343Z,8.40
2022-11-23T10:15:12.135Z,8.50
2022-11-23T10:19:13.755Z,8.50
2022-11-23T10:23:21.489Z,8.60
2022-11-23T10:27:23.892Z,8.70
2022-11-23T10:31:28.524Z,8.60
2022-11-23T10:35:32.155Z,8.60
2022-11-23T10:39:33.753Z,8.80
2022-11-23T10:43:38.412Z,8.80
2022-11-23T10:47:49.857Z,8.80
2022-11-23T10:52:03.719Z,8.80
2022-11-23T10:56:49.714Z,9.00
2022-11-23T11:00:58.455Z,8.90
2022-11-23T11:05:15.965Z,8.90
2022-11-23T11:09:25.586Z,9.00
2022-11-23T11:13:32.308Z,8.90
2022-11-23T11:17:35.272Z,8.80
2022-11-23T11:21:41.027Z,8.90
2022-11-23T11:25:42.644Z,9.00
2022-11-23T11:29:46.708Z,9.00
2022-11-23T11:34:07.185Z,9.20
2022-11-23T11:38:21.651Z,9.00
2022-11-23T11:42:36.404Z,8.80
2022-11-23T11:46:40.917Z,9.10
2022-11-23T11:50:51.889Z,9.10
2022-11-23T11:54:53.592Z,9.10
2022-11-23T11:58:57.147Z,9.00
2022-11-23T12:03:10.997Z,8.90
2022-11-23T12:07:16.154Z,9.00
2022-11-23T12:11:19.429Z,9.10
2022-11-23T12:20:17.392Z,9.20
2022-11-23T12:24:48.443Z,9.20
2022-11-23T12:29:15.059Z,9.00
2022-11-23T12:33:24.087Z,9.10
2022-11-23T12:37:28.710Z,9.10
2022-11-23T12:41:52.218Z,9.10
2022-11-23T12:45:57.136Z,9.10
2022-11-23T12:50:14.707Z,9.20
2022-11-23T12:54:42.800Z,9.30
2022-11-23T12:58:50.221Z,9.30
2022-11-23T13:02:58.273Z,9.20
2022-11-23T13:07:30.331Z,9.20
2022-11-23T13:11:36.942Z,9.30
2022-11-23T13:15:59.112Z,9.30
2022-11-23T13:20:10.133Z,9.10
2022-11-23T13:24:24.101Z,9.10
2022-11-23T13:28:30.098Z,9.10
2022-11-23T13:32:45.018Z,9.20
2022-11-23T13:37:14.357Z,9.30
2022-11-23T13:41:36.332Z,9.30
2022-11-23T13:45:38.160Z,9.40
2022-11-23T13:49:39.847Z,9.30
2022-11-23T13:53:42.518Z,9.30
2022-11-23T13:57:45.321Z,9.30
2022-11-23T14:02:02.759Z,9.20
2022-11-23T14:06:09.902Z,9.20
2022-11-23T14:10:18.944Z,9.10
2022-11-23T14:14:22.205Z,9.00
2022-11-23T14:18:30.733Z,9.00
2022-11-23T14:27:54.906Z,9.00
2022-11-23T14:32:19.699Z,9.00
2022-11-23T14:36:40.178Z,9.10
2022-11-23T14:40:53.163Z,9.00
2022-11-23T14:44:55.991Z,9.00
2022-11-23T14:49:06.220Z,9.00
2022-11-23T14:53:10.816Z,9.00
2022-11-23T14:57:12.632Z,9.00
2022-11-23T15:01:19.803Z,8.90
2022-11-23T15:05:29.987Z,8.90
2022-11-23T15:09:31.814Z,8.90
2022-11-23T15:13:44.652Z,8.90
2022-11-23T15:17:53.162Z,8.90
2022-11-23T15:21:58.208Z,8.90
2022-11-23T15:26:01.077Z,8.80
2022-11-23T15:30:02.954Z,8.60
2022-11-23T15:34:10.180Z,8.50
2022-11-23T15:38:13.137Z,8.40
2022-11-23T15:42:19.309Z,8.30
2022-11-23T15:46:25.991Z,8.30
2022-11-23T15:50:33.802Z,8.20
2022-11-23T15:54:36.527Z,8.20
2022-11-23T15:58:38.125Z,8.10
2022-11-23T16:02:39.948Z,8.00
2022-11-23T16:06:42.722Z,7.90
2022-11-23T16:10:54.078Z,7.90
2022-11-23T16:14:57.070Z,7.90
2022-11-23T16:18:58.870Z,7.80
2022-11-23T16:23:00.654Z,7.70
2022-11-23T16:27:11.631Z,7.60
2022-11-23T16:31:29.284Z,7.60
2022-11-23T16:35:30.980Z,7.60
2022-11-23T16:39:32.568Z,7.60
2022-11-23T16:43:34.457Z,7.60
2022-11-23T16:47:45.488Z,7.60
2022-11-23T16:51:56.211Z,7.50
2022-11-23T16:55:58.683Z,7.50
2022-11-23T17:00:02.452Z,7.50
2022-11-23T17:04:04.162Z,7.50
2022-11-23T17:08:05.826Z,7.50
2022-11-23T17:12:12.860Z,7.50
2022-11-23T17:16:19.054Z,7.50
2022-11-23T17:20:20.716Z,7.50
2022-11-23T17:24:22.575Z,7.50
2022-11-23T17:28:28.735Z,7.50
2022-11-23T17:32:30.346Z,7.50
2022-11-23T17:36:32.042Z,7.50
2022-11-23T17:40:33.632Z,7.50
2022-11-23T17:44:35.208Z,7.50
2022-11-23T17:48:36.935Z,7.50
2022-11-23T17:52:42.068Z,7.50
2022-11-23T17:56:43.635Z,7.50
2022-11-23T18:00:45.266Z,7.40
2022-11-23T18:04:47.340Z,7.40
2022-11-23T18:08:49.651Z,7.30
2022-11-23T18:12:51.292Z,7.30
2022-11-23T18:16:52.897Z,7.20
2022-11-23T18:20:54.485Z,7.20
2022-11-23T18:24:56.147Z,7.30
2022-11-23T18:28:57.914Z,7.20
2022-11-23T18:32:59.546Z,7.20
2022-11-23T18:37:01.225Z,7.20
2022-11-23T18:41:02.925Z,7.30
2022-11-23T18:45:04.732Z,7.30
2022-11-23T18:49:07.092Z,7.30
2022-11-23T18:53:09.057Z,7.30
2022-11-23T18:57:11.904Z,7.30
2022-11-23T19:01:20.654Z,7.30
2022-11-23T19:05:22.598Z,7.20
2022-11-23T19:09:24.179Z,7.20
2022-11-23T19:13:25.771Z,7.30
2022-11-23T19:17:27.517Z,7.30
2022-11-23T19:21:30.945Z,7.40
2022-11-23T19:25:32.669Z,7.40
2022-11-23T19:29:34.718Z,7.40
2022-11-23T19:33:36.697Z,7.40
2022-11-23T19:37:38.884Z,7.50
2022-11-23T19:41:40.956Z,7.60
2022-11-23T19:45:42.784Z,7.60
2022-11-23T19:49:45.209Z,7.60
2022-11-23T19:53:47.816Z,7.60
2022-11-23T19:57:49.668Z,7.60
2022-11-23T20:01:51.509Z,7.60
2022-11-23T20:05:57.504Z,7.60
2022-11-23T20:09:59.661Z,7.70
2022-11-23T20:14:01.585Z,7.70
2022-11-23T20:18:03.289Z,7.80
2022-11-23T20:22:07.611Z,7.90
2022-11-23T20:26:11.013Z,7.90
2022-11-23T20:30:12.783Z,8.00
2022-11-23T20:34:25.172Z,7.90
2022-11-23T20:38:29.241Z,8.00
2022-11-23T20:42:33.042Z,8.00
2022-11-23T20:50:58.376Z,8.00
2022-11-23T20:55:02.137Z,8.00
2022-11-23T20:59:04.775Z,8.00
2022-11-23T21:03:06.663Z,8.00
2022-11-23T21:07:13.156Z,8.00
2022-11-23T21:11:34.669Z,8.00
2022-11-23T21:15:38.603Z,8.10
2022-11-23T21:19:43.601Z,8.20
2022-11-23T21:23:50.884Z,8.20
2022-11-23T21:27:58.066Z,8.40
2022-11-23T21:32:03.760Z,8.40
2022-11-23T21:36:07.559Z,8.40
2022-11-23T21:40:13.343Z,8.40
2022-11-23T21:44:16.534Z,8.40
2022-11-23T21:48:18.351Z,8.30
2022-11-23T21:52:22.802Z,8.30
2022-11-23T21:56:26.733Z,8.20
2022-11-23T22:00:31.324Z,8.20
2022-11-23T22:04:33.525Z,8.10
2022-11-23T22:08:38.729Z,8.10
2022-11-23T22:12:40.364Z,8.10
2022-11-23T22:16:43.218Z,8.10
2022-11-23T22:20:45.516Z,8.10
2022-11-23T22:24:47.132Z,8.10
2022-11-23T22:28:49.942Z,8.20
2022-11-23T22:32:51.669Z,8.10
2022-11-23T22:36:53.293Z,8.10
2022-11-23T22:40:54.929Z,8.10
2022-11-23T22:44:56.772Z,8.20
2022-11-23T22:48:59.544Z,8.20
2022-11-23T22:53:01.263Z,8.20
2022-11-23T22:57:02.955Z,8.20
2022-11-23T23:01:08.627Z,8.20
2022-11-23T23:05:10.280Z,8.20
2022-11-23T23:09:12.722Z,8.20
2022-11-23T23:13:14.441Z,8.20
2022-11-23T23:17:16.056Z,8.20
2022-11-23T23:21:18.896Z,8.20
2022-11-23T23:25:20.530Z,8.20
2022-11-23T23:29:22.125Z,8.20
2022-11-23T23:33:23.727Z,8.20
2022-11-23T23:37:25.300Z,8.30
2022-11-23T23:41:26.926Z,8.40
2022-11-23T23:45:28.571Z,8.30
2022-11-23T23:49:31.588Z,8.30
2022-11-23T23:53:34.152Z,8.30
2022-11-23T23:57:35.961Z,8.30
